Details From EGLL - London Heathrow
To MUHA - La Havane Jose Marti Intl
Flight Number -
Tags Standard
Created
Modified
Stats Distance 4,042 nm / 7,486 km
Max Altitude 0 ft / 0 m
Waypoints 6
Social Downloads 3
Likes 0
Share VATSIM

Download

Looking for another format? Having issues loading an existing format? Contact us
Advertisement - Login to hide

Notes

None

Route

EGLL NEXAT SUMRS DEKAL UHA00 MUHA

ID Type Via Altitude Latitude Longitude Leg Dist Tot Dist Heading (true) Name
O EGLL APT - 0 ft / 0 m 51.46477˚ -0.48695˚ - 0 nm - -
NEXAT FIX - 0 ft / 0 m 51.93889˚ -6.57556˚ 228 nm 228 nm 280° / 275° -
SUMRS FIX - 0 ft / 0 m 28.71169˚ -76.55850˚ 3346 nm 3574 nm 274° / 225° -
DEKAL FIX - 0 ft / 0 m 25.85056˚ -79.63136˚ 237 nm 3811 nm 224° / 223° -
UHA00 FIX - 0 ft / 0 m 22.97888˚ -82.42504˚ 230 nm 4042 nm 222° / 221° -
O MUHA APT - 0 ft / 0 m 22.97863˚ -82.42494˚ 0 nm 4042 nm 160° / 160° -

Altitude Profile

Advertisement - Login to hide

Weather


0- 5 10 15 20 25 30 35+ Temperature / ° C

Clouds and Precipitation
Forecast for 2017-12-16 06:00 UTC. Updated 30 minutes ago

Ground ~20,000 ft ~40,000 ft Winds

EGLL

Details ICAO EGLL (LHR)
Name London Heathrow
Region United Kingdom
Timezone Europe/London (UTC+0.0)
Stats Elevation 83 ft / 25 m (AMSL)
Location 51.471218° -0.460978°
Runways 2
Magnetic Variation 0.559° W

METAR

EGLL 160520Z AUTO 29005KT 9999 NCD M00/M02 Q1015 NOSIG

Decode

TAF

TAF EGLL 152302Z 1600/1706 31010KT CAVOK PROB30 TEMPO 1613/1618 8000 -SHRA BKN018 BECMG 1620/1623 VRB03KT 7000 TEMPO 1623/1706 3000 BR MIFG PROB30 1701/1706 0300 FZFG FG VV///

Decode

Departure Runways

ID Width Length Bearing (true) Bearing (mag) Surface Threshold Offset Overrun Length
09L 164 ft / 50 m 12,811 ft / 3,905 m 89.64° 90.20° Asphalt 1,004 ft / 306 m 0 ft / 0 m
09R 164 ft / 50 m 12,019 ft / 3,663 m 89.67° 90.23° Asphalt 1,007 ft / 307 m 0 ft / 0 m
27L 164 ft / 50 m 12,019 ft / 3,663 m 269.71° 270.27° Asphalt 0 ft / 0 m 69 ft / 21 m
27R 164 ft / 50 m 12,811 ft / 3,905 m 269.69° 270.25° Asphalt 0 ft / 0 m 69 ft / 21 m

MUHA

Details ICAO MUHA (HAV)
Name Havana Jose Marti Intl
Region Cuba
Timezone America/Havana (UTC-5.0)
Stats Elevation 209 ft / 64 m (AMSL)
Location 22.989154° -82.409086°
Runways 1
Magnetic Variation 4.909° W

METAR

MUHA 160455Z 06004KT 9000 NSC 22/20 Q1021

Decode

TAF

Not found

Destination Runways

ID Width Length Bearing (true) Bearing (mag) Surface Threshold Offset Overrun Length
06 148 ft / 45 m 13,133 ft / 4,003 m 54.21° 59.12° Asphalt 0 ft / 0 m 476 ft / 145 m
24 148 ft / 45 m 13,133 ft / 4,003 m 234.23° 239.14° Asphalt 0 ft / 0 m 197 ft / 60 m

Approach Navaids

Runway Type Ident Frequency Range Bearing (true) Bearing (mag) Slope Elevation
06 Localiser IHA 110.50 MHz 18 nm / 33 km 54.23° 59.14° - 209 ft / 64 m (AMSL)
06 Glidescope IHA 110.50 MHz 10 nm / 19 km 54.22° 59.13° 3.00° 209 ft / 64 m (AMSL)

Popular Alternatives